This is the latest recevied weather packets stored in our database for station/object HJ3GNC-15. If no packets are shown the sender has not sent any weather packets the latest 10 day(s).
| Time | Temp. | Humidity | Pressure | Rain* | Wind** | Luminosity | Snow |
|---|---|---|---|---|---|---|---|
| 1777858518 | 15.56° C | 92% | 1016 hPa | 0 mm | - | - | - |
| 1777857549 | 15.56° C | 90% | 1015 hPa | 0 mm | - | - | - |
| 1777853483 | 16.11° C | 87% | 1014 hPa | 0 mm | - | - | - |
| 1777852513 | 16.11° C | 87% | 1014 hPa | 0 mm | - | - | - |
| 1777851539 | 16.11° C | 87% | 1014 hPa | 0 mm | - | - | - |
| 1777850588 | 16.67° C | 83% | 1012 hPa | 0 mm | - | - | - |
| 1777849641 | 17.22° C | 83% | 1012 hPa | 0 mm | - | - | - |
| 1777848686 | 16.67° C | 85% | 1012 hPa | 0 mm | - | - | - |
| 1777847739 | 16.67° C | 85% | 1012 hPa | 0 mm | - | - | - |
| 1777846795 | 18.89° C | 78% | 1011 hPa | 0 mm | - | - | - |
| 1777845846 | 18.89° C | 77% | 1011 hPa | 0 mm | - | - | - |
| 1777844907 | 18.89° C | 79% | 1011 hPa | 0 mm | - | - | - |
| 1777843957 | 18.89° C | 79% | 1011 hPa | 0 mm | - | - | - |
| 1777841794 | 19.44° C | 70% | 1011 hPa | 0 mm | - | - | - |
| 1777840852 | 19.44° C | 70% | 1011 hPa | 0 mm | - | - | - |
| 1777839891 | 20.56° C | 66% | 1011 hPa | 0 mm | - | - | - |
| 1777838912 | 21.11° C | 65% | 1011 hPa | 0 mm | - | - | - |
| 1777837953 | 21.11° C | 66% | 1011 hPa | 0 mm | - | - | - |
| 1777836971 | 21.11° C | 66% | 1011 hPa | 0 mm | - | - | - |
| 1777836018 | 20.56° C | 64% | 1011 hPa | 0 mm | - | - | - |
| 1777835045 | 20.56° C | 64% | 1011 hPa | 0 mm | - | - | - |
| 1777834100 | 20.56° C | 65% | 1011 hPa | 0 mm | - | - | - |
| 1777833144 | 20.56° C | 65% | 1011 hPa | 0 mm | - | - | - |
| 1777832199 | 20.56° C | 65% | 1012 hPa | 0 mm | - | - | - |
| 1777831257 | 20.56° C | 69% | 1013 hPa | 0 mm | - | - | - |
* Rain latest hour (hover to see other rain measurements)
** Current wind speed in m/s (hover to see current wind gust speed)